sensor_id;sensor_type;location;lat;lon;timestamp;temperature;humidity
61912;DHT22;49973;52.084;5.412;2024-03-23T00:54:35;7.90;99.90
61912;DHT22;49973;52.084;5.412;2024-03-23T00:57:03;8.00;99.90
61912;DHT22;49973;52.084;5.412;2024-03-23T00:59:30;8.00;99.90
61912;DHT22;49973;52.084;5.412;2024-03-23T01:01:57;8.00;99.90
61912;DHT22;49973;52.084;5.412;2024-03-23T01:04:25;8.00;99.90
61912;DHT22;49973;52.084;5.412;2024-03-23T01:06:51;8.00;99.90
61912;DHT22;49973;52.084;5.412;2024-03-23T01:09:19;8.00;99.90
61912;DHT22;49973;52.084;5.412;2024-03-23T01:11:47;8.00;99.90
61912;DHT22;49973;52.084;5.412;2024-03-23T01:14:14;8.00;99.90
61912;DHT22;49973;52.084;5.412;2024-03-23T01:16:41;8.00;99.90
61912;DHT22;49973;52.084;5.412;2024-03-23T01:19:09;8.00;99.90
61912;DHT22;49973;52.084;5.412;2024-03-23T01:21:35;8.00;99.90
61912;DHT22;49973;52.084;5.412;2024-03-23T01:24:03;8.00;99.90
61912;DHT22;49973;52.084;5.412;2024-03-23T01:26:29;8.00;99.90
61912;DHT22;49973;52.084;5.412;2024-03-23T01:28:59;8.00;99.90
61912;DHT22;49973;52.084;5.412;2024-03-23T01:31:26;8.00;99.90
61912;DHT22;49973;52.084;5.412;2024-03-23T01:33:53;8.00;99.90
61912;DHT22;49973;52.084;5.412;2024-03-23T01:36:20;8.00;99.90
61912;DHT22;49973;52.084;5.412;2024-03-23T01:38:48;8.00;99.90
61912;DHT22;49973;52.084;5.412;2024-03-23T01:41:14;8.00;99.90
61912;DHT22;49973;52.084;5.412;2024-03-23T01:43:42;8.20;99.90
61912;DHT22;49973;52.084;5.412;2024-03-23T01:46:10;8.10;99.90
61912;DHT22;49973;52.084;5.412;2024-03-23T01:48:38;7.90;99.90
61912;DHT22;49973;52.084;5.412;2024-03-23T01:51:04;7.90;99.90
61912;DHT22;49973;52.084;5.412;2024-03-23T01:53:32;7.90;99.90
61912;DHT22;49973;52.084;5.412;2024-03-23T01:55:59;7.80;99.90
61912;DHT22;49973;52.084;5.412;2024-03-23T01:58:27;7.80;99.90
61912;DHT22;49973;52.084;5.412;2024-03-23T02:00:54;7.70;99.90
61912;DHT22;49973;52.084;5.412;2024-03-23T02:03:26;7.60;99.90
61912;DHT22;49973;52.084;5.412;2024-03-23T02:05:54;7.50;99.90
61912;DHT22;49973;52.084;5.412;2024-03-23T02:08:22;7.50;99.90
61912;DHT22;49973;52.084;5.412;2024-03-23T02:10:50;7.30;99.90
61912;DHT22;49973;52.084;5.412;2024-03-23T02:13:18;7.30;99.90
61912;DHT22;49973;52.084;5.412;2024-03-23T02:15:46;7.30;99.90
61912;DHT22;49973;52.084;5.412;2024-03-23T02:18:12;7.20;99.90
61912;DHT22;49973;52.084;5.412;2024-03-23T02:20:41;7.20;99.90
61912;DHT22;49973;52.084;5.412;2024-03-23T02:23:14;7.20;99.90
61912;DHT22;49973;52.084;5.412;2024-03-23T02:25:42;7.10;99.90
61912;DHT22;49973;52.084;5.412;2024-03-23T02:28:09;7.00;99.90
61912;DHT22;49973;52.084;5.412;2024-03-23T02:30:37;7.00;99.90
61912;DHT22;49973;52.084;5.412;2024-03-23T02:33:04;7.00;99.90
61912;DHT22;49973;52.084;5.412;2024-03-23T02:35:33;6.90;99.90
61912;DHT22;49973;52.084;5.412;2024-03-23T02:38:00;7.00;99.90
61912;DHT22;49973;52.084;5.412;2024-03-23T02:40:29;6.80;99.90
61912;DHT22;49973;52.084;5.412;2024-03-23T02:42:55;6.70;99.90
61912;DHT22;49973;52.084;5.412;2024-03-23T02:45:23;6.70;99.90
61912;DHT22;49973;52.084;5.412;2024-03-23T02:47:51;6.70;99.90
61912;DHT22;49973;52.084;5.412;2024-03-23T02:50:18;6.60;99.90
61912;DHT22;49973;52.084;5.412;2024-03-23T02:52:46;6.60;99.90
61912;DHT22;49973;52.084;5.412;2024-03-23T02:55:13;6.60;99.90
61912;DHT22;49973;52.084;5.412;2024-03-23T02:57:42;6.60;99.90
61912;DHT22;49973;52.084;5.412;2024-03-23T03:00:09;6.60;99.90
61912;DHT22;49973;52.084;5.412;2024-03-23T03:02:37;6.40;99.90
61912;DHT22;49973;52.084;5.412;2024-03-23T03:05:04;6.40;99.90
61912;DHT22;49973;52.084;5.412;2024-03-23T03:07:32;6.40;99.90
61912;DHT22;49973;52.084;5.412;2024-03-23T03:09:59;6.40;99.90
61912;DHT22;49973;52.084;5.412;2024-03-23T03:12:26;6.30;99.90
61912;DHT22;49973;52.084;5.412;2024-03-23T03:14:54;6.30;99.90
61912;DHT22;49973;52.084;5.412;2024-03-23T03:17:22;6.30;99.90
61912;DHT22;49973;52.084;5.412;2024-03-23T03:19:49;6.20;99.90
61912;DHT22;49973;52.084;5.412;2024-03-23T03:22:22;6.20;99.90
61912;DHT22;49973;52.084;5.412;2024-03-23T03:24:48;6.20;99.90
61912;DHT22;49973;52.084;5.412;2024-03-23T03:27:16;6.20;99.90
61912;DHT22;49973;52.084;5.412;2024-03-23T03:29:42;6.10;99.90
61912;DHT22;49973;52.084;5.412;2024-03-23T03:32:11;6.10;99.90
61912;DHT22;49973;52.084;5.412;2024-03-23T03:34:38;6.00;99.90
61912;DHT22;49973;52.084;5.412;2024-03-23T03:37:05;6.00;99.90
61912;DHT22;49973;52.084;5.412;2024-03-23T03:39:32;6.00;99.90
61912;DHT22;49973;52.084;5.412;2024-03-23T03:42:00;6.00;99.90
61912;DHT22;49973;52.084;5.412;2024-03-23T03:44:28;5.90;99.90
61912;DHT22;49973;52.084;5.412;2024-03-23T03:46:55;5.80;99.90
61912;DHT22;49973;52.084;5.412;2024-03-23T03:49:23;5.90;99.90
61912;DHT22;49973;52.084;5.412;2024-03-23T03:51:51;5.90;99.90
61912;DHT22;49973;52.084;5.412;2024-03-23T03:54:18;5.70;99.90
61912;DHT22;49973;52.084;5.412;2024-03-23T03:56:45;5.70;99.90
61912;DHT22;49973;52.084;5.412;2024-03-23T03:59:12;5.70;99.90
61912;DHT22;49973;52.084;5.412;2024-03-23T04:01:40;5.60;99.90
61912;DHT22;49973;52.084;5.412;2024-03-23T04:04:07;5.60;99.90
61912;DHT22;49973;52.084;5.412;2024-03-23T04:06:36;5.60;99.90
61912;DHT22;49973;52.084;5.412;2024-03-23T04:09:03;5.60;99.90
61912;DHT22;49973;52.084;5.412;2024-03-23T04:11:30;5.60;99.90
61912;DHT22;49973;52.084;5.412;2024-03-23T04:13:57;5.50;99.90
61912;DHT22;49973;52.084;5.412;2024-03-23T04:16:26;5.50;99.90
61912;DHT22;49973;52.084;5.412;2024-03-23T04:18:53;5.50;99.90
61912;DHT22;49973;52.084;5.412;2024-03-23T04:21:22;5.40;99.90
61912;DHT22;49973;52.084;5.412;2024-03-23T04:23:52;5.40;99.90
61912;DHT22;49973;52.084;5.412;2024-03-23T04:26:19;5.40;99.90
61912;DHT22;49973;52.084;5.412;2024-03-23T04:28:46;5.30;99.90
61912;DHT22;49973;52.084;5.412;2024-03-23T04:31:14;5.30;99.90
61912;DHT22;49973;52.084;5.412;2024-03-23T04:33:40;5.30;99.90
61912;DHT22;49973;52.084;5.412;2024-03-23T04:36:08;5.30;99.90
61912;DHT22;49973;52.084;5.412;2024-03-23T04:38:36;5.20;99.90
61912;DHT22;49973;52.084;5.412;2024-03-23T04:41:05;5.20;99.90
61912;DHT22;49973;52.084;5.412;2024-03-23T04:43:32;5.20;99.90
61912;DHT22;49973;52.084;5.412;2024-03-23T04:46:00;5.20;99.90
61912;DHT22;49973;52.084;5.412;2024-03-23T04:48:28;5.10;99.90
61912;DHT22;49973;52.084;5.412;2024-03-23T04:50:55;5.10;99.90
61912;DHT22;49973;52.084;5.412;2024-03-23T04:53:24;5.10;99.90
61912;DHT22;49973;52.084;5.412;2024-03-23T04:55:55;5.10;99.90
61912;DHT22;49973;52.084;5.412;2024-03-23T04:58:23;5.00;99.90
61912;DHT22;49973;52.084;5.412;2024-03-23T05:00:54;5.00;99.90
61912;DHT22;49973;52.084;5.412;2024-03-23T05:03:21;5.00;99.90
61912;DHT22;49973;52.084;5.412;2024-03-23T05:05:49;4.90;99.90
61912;DHT22;49973;52.084;5.412;2024-03-23T05:08:16;5.00;99.90
61912;DHT22;49973;52.084;5.412;2024-03-23T05:10:43;4.90;99.90
61912;DHT22;49973;52.084;5.412;2024-03-23T05:13:10;5.10;99.90
61912;DHT22;49973;52.084;5.412;2024-03-23T05:15:39;4.90;99.90
61912;DHT22;49973;52.084;5.412;2024-03-23T05:18:06;4.80;99.90
61912;DHT22;49973;52.084;5.412;2024-03-23T05:20:34;4.80;99.90
61912;DHT22;49973;52.084;5.412;2024-03-23T05:23:00;4.80;99.90
61912;DHT22;49973;52.084;5.412;2024-03-23T05:25:28;4.80;99.90
61912;DHT22;49973;52.084;5.412;2024-03-23T05:27:55;4.80;99.90
61912;DHT22;49973;52.084;5.412;2024-03-23T05:30:22;4.70;99.90
61912;DHT22;49973;52.084;5.412;2024-03-23T05:32:51;4.70;99.90
61912;DHT22;49973;52.084;5.412;2024-03-23T05:35:19;4.70;99.90
61912;DHT22;49973;52.084;5.412;2024-03-23T05:37:46;4.70;99.90
61912;DHT22;49973;52.084;5.412;2024-03-23T05:40:13;4.70;99.90
61912;DHT22;49973;52.084;5.412;2024-03-23T05:42:41;4.70;99.90
61912;DHT22;49973;52.084;5.412;2024-03-23T05:45:09;4.70;99.90
61912;DHT22;49973;52.084;5.412;2024-03-23T05:47:36;4.70;99.90
61912;DHT22;49973;52.084;5.412;2024-03-23T05:50:05;4.80;99.90
61912;DHT22;49973;52.084;5.412;2024-03-23T05:52:32;4.90;99.90
61912;DHT22;49973;52.084;5.412;2024-03-23T05:55:00;4.90;99.90
61912;DHT22;49973;52.084;5.412;2024-03-23T05:57:26;5.00;99.90
61912;DHT22;49973;52.084;5.412;2024-03-23T05:59:54;5.10;99.90
61912;DHT22;49973;52.084;5.412;2024-03-23T06:02:21;5.20;99.90
61912;DHT22;49973;52.084;5.412;2024-03-23T06:04:49;5.30;99.90
61912;DHT22;49973;52.084;5.412;2024-03-23T06:07:17;5.30;99.90
61912;DHT22;49973;52.084;5.412;2024-03-23T06:09:45;5.40;99.90
61912;DHT22;49973;52.084;5.412;2024-03-23T06:12:11;5.40;99.90
61912;DHT22;49973;52.084;5.412;2024-03-23T06:14:39;5.40;99.90
61912;DHT22;49973;52.084;5.412;2024-03-23T06:17:06;5.50;99.90
61912;DHT22;49973;52.084;5.412;2024-03-23T06:19:33;5.40;99.90
61912;DHT22;49973;52.084;5.412;2024-03-23T06:22:00;5.40;99.90
61912;DHT22;49973;52.084;5.412;2024-03-23T06:24:29;5.40;99.90
61912;DHT22;49973;52.084;5.412;2024-03-23T06:26:55;5.40;99.90
61912;DHT22;49973;52.084;5.412;2024-03-23T06:29:23;5.30;99.90
61912;DHT22;49973;52.084;5.412;2024-03-23T06:31:53;5.40;99.90
61912;DHT22;49973;52.084;5.412;2024-03-23T06:34:21;5.40;99.90
61912;DHT22;49973;52.084;5.412;2024-03-23T06:36:49;5.40;99.90
61912;DHT22;49973;52.084;5.412;2024-03-23T06:39:16;5.60;99.90
61912;DHT22;49973;52.084;5.412;2024-03-23T06:41:52;5.70;99.90
61912;DHT22;49973;52.084;5.412;2024-03-23T06:44:19;6.00;99.90
61912;DHT22;49973;52.084;5.412;2024-03-23T06:46:46;6.40;99.90
61912;DHT22;49973;52.084;5.412;2024-03-23T06:49:15;6.80;99.90
61912;DHT22;49973;52.084;5.412;2024-03-23T06:51:41;7.10;99.90
61912;DHT22;49973;52.084;5.412;2024-03-23T06:54:09;7.60;99.90
61912;DHT22;49973;52.084;5.412;2024-03-23T06:56:36;7.80;99.90
61912;DHT22;49973;52.084;5.412;2024-03-23T06:59:05;8.00;99.90
61912;DHT22;49973;52.084;5.412;2024-03-23T07:01:31;8.30;99.90
61912;DHT22;49973;52.084;5.412;2024-03-23T07:03:59;8.70;99.90
61912;DHT22;49973;52.084;5.412;2024-03-23T07:06:25;8.90;99.90
61912;DHT22;49973;52.084;5.412;2024-03-23T07:08:53;9.30;99.90
61912;DHT22;49973;52.084;5.412;2024-03-23T07:11:20;9.60;99.90
61912;DHT22;49973;52.084;5.412;2024-03-23T07:13:50;10.00;99.90
61912;DHT22;49973;52.084;5.412;2024-03-23T07:16:18;10.20;99.90
61912;DHT22;49973;52.084;5.412;2024-03-23T07:18:45;10.70;99.90
61912;DHT22;49973;52.084;5.412;2024-03-23T07:21:12;11.20;99.90
61912;DHT22;49973;52.084;5.412;2024-03-23T07:23:42;11.60;99.90
61912;DHT22;49973;52.084;5.412;2024-03-23T07:26:11;11.90;99.90
61912;DHT22;49973;52.084;5.412;2024-03-23T07:28:39;12.20;99.90
61912;DHT22;49973;52.084;5.412;2024-03-23T07:31:11;12.30;99.90
61912;DHT22;49973;52.084;5.412;2024-03-23T07:33:44;12.60;99.90
61912;DHT22;49973;52.084;5.412;2024-03-23T07:36:10;12.80;99.90
61912;DHT22;49973;52.084;5.412;2024-03-23T07:38:40;13.00;99.90
61912;DHT22;49973;52.084;5.412;2024-03-23T07:41:08;13.40;99.90
61912;DHT22;49973;52.084;5.412;2024-03-23T07:43:37;13.80;99.90
61912;DHT22;49973;52.084;5.412;2024-03-23T07:46:04;13.60;99.90
61912;DHT22;49973;52.084;5.412;2024-03-23T07:48:32;13.40;99.90
61912;DHT22;49973;52.084;5.412;2024-03-23T07:51:02;13.50;99.90
61912;DHT22;49973;52.084;5.412;2024-03-23T07:53:31;13.80;99.90
61912;DHT22;49973;52.084;5.412;2024-03-23T07:55:59;14.00;99.90
61912;DHT22;49973;52.084;5.412;2024-03-23T07:58:27;14.40;99.90
61912;DHT22;49973;52.084;5.412;2024-03-23T08:00:54;14.50;99.90
61912;DHT22;49973;52.084;5.412;2024-03-23T08:03:22;14.50;99.90
61912;DHT22;49973;52.084;5.412;2024-03-23T08:05:49;14.80;99.90
61912;DHT22;49973;52.084;5.412;2024-03-23T08:08:18;14.90;99.90
61912;DHT22;49973;52.084;5.412;2024-03-23T08:10:48;14.80;99.90
61912;DHT22;49973;52.084;5.412;2024-03-23T08:13:16;14.70;99.90
61912;DHT22;49973;52.084;5.412;2024-03-23T08:15:43;14.40;99.90
61912;DHT22;49973;52.084;5.412;2024-03-23T08:18:11;14.20;99.90
61912;DHT22;49973;52.084;5.412;2024-03-23T08:20:38;14.30;99.90
61912;DHT22;49973;52.084;5.412;2024-03-23T08:23:06;14.40;99.90
61912;DHT22;49973;52.084;5.412;2024-03-23T08:25:34;14.60;99.90
61912;DHT22;49973;52.084;5.412;2024-03-23T08:28:03;14.70;99.90
61912;DHT22;49973;52.084;5.412;2024-03-23T08:30:29;14.40;99.90
61912;DHT22;49973;52.084;5.412;2024-03-23T08:32:57;13.90;99.90
61912;DHT22;49973;52.084;5.412;2024-03-23T08:35:24;13.30;99.90
61912;DHT22;49973;52.084;5.412;2024-03-23T08:37:52;12.60;99.90
61912;DHT22;49973;52.084;5.412;2024-03-23T08:40:19;12.00;99.90
61912;DHT22;49973;52.084;5.412;2024-03-23T08:42:48;11.30;99.90
61912;DHT22;49973;52.084;5.412;2024-03-23T08:45:14;11.00;99.90
61912;DHT22;49973;52.084;5.412;2024-03-23T08:47:42;11.10;99.90
61912;DHT22;49973;52.084;5.412;2024-03-23T08:50:09;11.10;99.90
61912;DHT22;49973;52.084;5.412;2024-03-23T08:52:37;11.00;99.90
61912;DHT22;49973;52.084;5.412;2024-03-23T08:55:04;10.70;99.90
61912;DHT22;49973;52.084;5.412;2024-03-23T08:57:31;10.50;99.90
61912;DHT22;49973;52.084;5.412;2024-03-23T09:00:00;10.20;99.90
61912;DHT22;49973;52.084;5.412;2024-03-23T09:02:27;9.90;99.90
61912;DHT22;49973;52.084;5.412;2024-03-23T09:04:54;9.80;99.90
61912;DHT22;49973;52.084;5.412;2024-03-23T09:07:22;9.80;99.90
61912;DHT22;49973;52.084;5.412;2024-03-23T09:09:48;9.90;99.90
61912;DHT22;49973;52.084;5.412;2024-03-23T09:12:16;10.10;99.90
61912;DHT22;49973;52.084;5.412;2024-03-23T09:14:42;10.70;99.90
61912;DHT22;49973;52.084;5.412;2024-03-23T09:17:11;11.40;99.90
61912;DHT22;49973;52.084;5.412;2024-03-23T09:19:38;11.80;99.90
61912;DHT22;49973;52.084;5.412;2024-03-23T09:22:06;11.80;99.90
61912;DHT22;49973;52.084;5.412;2024-03-23T09:24:33;12.00;99.90
61912;DHT22;49973;52.084;5.412;2024-03-23T09:27:01;12.40;99.90
61912;DHT22;49973;52.084;5.412;2024-03-23T09:29:28;12.80;99.90
61912;DHT22;49973;52.084;5.412;2024-03-23T09:31:55;13.50;99.90
61912;DHT22;49973;52.084;5.412;2024-03-23T09:34:23;14.30;99.90
61912;DHT22;49973;52.084;5.412;2024-03-23T09:36:51;15.00;99.90
61912;DHT22;49973;52.084;5.412;2024-03-23T09:39:18;15.60;99.90
61912;DHT22;49973;52.084;5.412;2024-03-23T09:41:46;16.20;99.90
61912;DHT22;49973;52.084;5.412;2024-03-23T09:44:13;16.70;99.90
61912;DHT22;49973;52.084;5.412;2024-03-23T09:46:40;17.10;99.90
61912;DHT22;49973;52.084;5.412;2024-03-23T09:49:07;17.20;99.90
61912;DHT22;49973;52.084;5.412;2024-03-23T09:51:37;16.90;99.90
61912;DHT22;49973;52.084;5.412;2024-03-23T09:54:04;16.00;99.90
61912;DHT22;49973;52.084;5.412;2024-03-23T09:56:31;15.00;99.90
61912;DHT22;49973;52.084;5.412;2024-03-23T09:59:01;14.40;99.90
61912;DHT22;49973;52.084;5.412;2024-03-23T10:01:30;14.20;99.90
61912;DHT22;49973;52.084;5.412;2024-03-23T10:03:57;14.20;99.90
61912;DHT22;49973;52.084;5.412;2024-03-23T10:06:24;13.90;99.90
61912;DHT22;49973;52.084;5.412;2024-03-23T10:08:53;13.50;99.90
61912;DHT22;49973;52.084;5.412;2024-03-23T10:11:21;12.80;99.90
61912;DHT22;49973;52.084;5.412;2024-03-23T10:13:48;12.30;99.90
61912;DHT22;49973;52.084;5.412;2024-03-23T10:16:23;11.70;99.90
61912;DHT22;49973;52.084;5.412;2024-03-23T10:18:50;11.60;99.90
61912;DHT22;49973;52.084;5.412;2024-03-23T10:21:18;12.00;99.90
61912;DHT22;49973;52.084;5.412;2024-03-23T10:23:45;12.30;99.90
61912;DHT22;49973;52.084;5.412;2024-03-23T10:26:19;12.50;99.90
61912;DHT22;49973;52.084;5.412;2024-03-23T10:28:52;12.30;99.90
61912;DHT22;49973;52.084;5.412;2024-03-23T10:31:19;11.70;99.90
61912;DHT22;49973;52.084;5.412;2024-03-23T10:33:47;11.30;99.90
61912;DHT22;49973;52.084;5.412;2024-03-23T10:36:14;10.60;99.90
61912;DHT22;49973;52.084;5.412;2024-03-23T10:38:44;10.60;99.90
61912;DHT22;49973;52.084;5.412;2024-03-23T10:41:11;10.40;99.90
61912;DHT22;49973;52.084;5.412;2024-03-23T10:43:40;10.30;99.90
61912;DHT22;49973;52.084;5.412;2024-03-23T10:46:06;10.20;99.90
61912;DHT22;49973;52.084;5.412;2024-03-23T10:48:35;10.10;99.90
61912;DHT22;49973;52.084;5.412;2024-03-23T10:51:02;9.90;99.90
61912;DHT22;49973;52.084;5.412;2024-03-23T10:53:33;9.70;99.90
61912;DHT22;49973;52.084;5.412;2024-03-23T10:56:00;9.50;99.90
61912;DHT22;49973;52.084;5.412;2024-03-23T10:58:31;9.10;99.90
61912;DHT22;49973;52.084;5.412;2024-03-23T11:00:59;8.70;99.90
61912;DHT22;49973;52.084;5.412;2024-03-23T11:03:31;8.10;99.90
61912;DHT22;49973;52.084;5.412;2024-03-23T11:05:59;7.80;99.90
61912;DHT22;49973;52.084;5.412;2024-03-23T11:08:37;7.60;99.90
61912;DHT22;49973;52.084;5.412;2024-03-23T11:11:28;7.80;99.90
61912;DHT22;49973;52.084;5.412;2024-03-23T11:13:59;8.30;99.90
61912;DHT22;49973;52.084;5.412;2024-03-23T11:16:28;8.60;99.90
61912;DHT22;49973;52.084;5.412;2024-03-23T11:21:57;8.60;99.90
61912;DHT22;49973;52.084;5.412;2024-03-23T11:24:25;8.50;99.90
61912;DHT22;49973;52.084;5.412;2024-03-23T11:26:51;8.80;99.90
61912;DHT22;49973;52.084;5.412;2024-03-23T11:29:19;9.50;99.90
61912;DHT22;49973;52.084;5.412;2024-03-23T11:31:47;10.10;99.90
61912;DHT22;49973;52.084;5.412;2024-03-23T11:34:15;10.90;99.90
61912;DHT22;49973;52.084;5.412;2024-03-23T11:36:42;11.60;99.90
61912;DHT22;49973;52.084;5.412;2024-03-23T11:39:13;12.20;99.90
61912;DHT22;49973;52.084;5.412;2024-03-23T11:41:46;12.60;99.90
61912;DHT22;49973;52.084;5.412;2024-03-23T11:44:15;13.00;99.90
61912;DHT22;49973;52.084;5.412;2024-03-23T11:46:42;13.10;99.90
61912;DHT22;49973;52.084;5.412;2024-03-23T11:49:21;13.10;99.90
61912;DHT22;49973;52.084;5.412;2024-03-23T11:51:48;12.70;99.90
61912;DHT22;49973;52.084;5.412;2024-03-23T11:54:19;12.50;99.90
61912;DHT22;49973;52.084;5.412;2024-03-23T11:56:57;12.60;99.90
61912;DHT22;49973;52.084;5.412;2024-03-23T11:59:32;12.80;99.90
61912;DHT22;49973;52.084;5.412;2024-03-23T12:01:59;12.70;99.90
61912;DHT22;49973;52.084;5.412;2024-03-23T12:04:28;12.40;99.90
61912;DHT22;49973;52.084;5.412;2024-03-23T12:07:10;12.20;99.90
61912;DHT22;49973;52.084;5.412;2024-03-23T12:09:38;12.20;99.90
61912;DHT22;49973;52.084;5.412;2024-03-23T12:12:14;12.30;99.90
61912;DHT22;49973;52.084;5.412;2024-03-23T12:14:42;12.60;99.90
61912;DHT22;49973;52.084;5.412;2024-03-23T12:17:13;12.90;99.90
61912;DHT22;49973;52.084;5.412;2024-03-23T12:19:43;13.30;99.90
61912;DHT22;49973;52.084;5.412;2024-03-23T12:22:11;13.70;99.90
61912;DHT22;49973;52.084;5.412;2024-03-23T12:24:38;14.00;99.90
61912;DHT22;49973;52.084;5.412;2024-03-23T12:27:11;14.00;99.90
61912;DHT22;49973;52.084;5.412;2024-03-23T12:29:38;13.70;99.90
61912;DHT22;49973;52.084;5.412;2024-03-23T12:32:06;13.20;99.90
61912;DHT22;49973;52.084;5.412;2024-03-23T12:34:34;12.80;99.90
61912;DHT22;49973;52.084;5.412;2024-03-23T12:37:01;12.50;99.90
61912;DHT22;49973;52.084;5.412;2024-03-23T12:39:29;12.50;99.90
61912;DHT22;49973;52.084;5.412;2024-03-23T12:41:56;12.80;99.90
61912;DHT22;49973;52.084;5.412;2024-03-23T12:44:23;13.10;99.90
61912;DHT22;49973;52.084;5.412;2024-03-23T12:46:50;13.00;99.90
61912;DHT22;49973;52.084;5.412;2024-03-23T12:49:17;12.70;99.90
61912;DHT22;49973;52.084;5.412;2024-03-23T12:51:49;12.40;99.90
61912;DHT22;49973;52.084;5.412;2024-03-23T12:54:22;12.20;99.90
61912;DHT22;49973;52.084;5.412;2024-03-23T12:56:51;12.00;99.90
61912;DHT22;49973;52.084;5.412;2024-03-23T12:59:17;11.90;99.90
61912;DHT22;49973;52.084;5.412;2024-03-23T13:01:46;11.70;99.90
61912;DHT22;49973;52.084;5.412;2024-03-23T13:04:12;11.30;99.90
61912;DHT22;49973;52.084;5.412;2024-03-23T13:06:40;11.20;99.90
61912;DHT22;49973;52.084;5.412;2024-03-23T13:09:07;11.10;99.90
61912;DHT22;49973;52.084;5.412;2024-03-23T13:11:36;11.20;99.90
61912;DHT22;49973;52.084;5.412;2024-03-23T13:14:03;11.10;99.90
61912;DHT22;49973;52.084;5.412;2024-03-23T13:16:31;11.00;99.90
61912;DHT22;49973;52.084;5.412;2024-03-23T13:18:58;10.80;99.90
61912;DHT22;49973;52.084;5.412;2024-03-23T13:21:27;10.60;99.90
61912;DHT22;49973;52.084;5.412;2024-03-23T13:23:54;10.40;99.90
61912;DHT22;49973;52.084;5.412;2024-03-23T13:26:21;10.20;99.90
61912;DHT22;49973;52.084;5.412;2024-03-23T13:28:49;10.00;99.90
61912;DHT22;49973;52.084;5.412;2024-03-23T13:31:17;9.60;99.90
61912;DHT22;49973;52.084;5.412;2024-03-23T13:33:44;9.00;99.90
61912;DHT22;49973;52.084;5.412;2024-03-23T13:36:11;8.60;99.90
61912;DHT22;49973;52.084;5.412;2024-03-23T13:38:38;8.50;99.90
61912;DHT22;49973;52.084;5.412;2024-03-23T13:41:06;8.70;99.90
61912;DHT22;49973;52.084;5.412;2024-03-23T13:43:34;9.30;99.90
61912;DHT22;49973;52.084;5.412;2024-03-23T13:46:03;9.80;99.90
61912;DHT22;49973;52.084;5.412;2024-03-23T13:48:29;10.00;99.90
61912;DHT22;49973;52.084;5.412;2024-03-23T13:50:57;10.20;99.90
61912;DHT22;49973;52.084;5.412;2024-03-23T13:53:24;10.60;99.90
61912;DHT22;49973;52.084;5.412;2024-03-23T13:55:52;10.80;99.90
61912;DHT22;49973;52.084;5.412;2024-03-23T13:58:19;10.70;99.90
61912;DHT22;49973;52.084;5.412;2024-03-23T14:00:47;10.50;99.90
61912;DHT22;49973;52.084;5.412;2024-03-23T14:03:15;10.10;99.90
61912;DHT22;49973;52.084;5.412;2024-03-23T14:05:42;10.00;99.90
61912;DHT22;49973;52.084;5.412;2024-03-23T14:08:10;10.30;99.90
61912;DHT22;49973;52.084;5.412;2024-03-23T14:10:41;10.80;99.90
61912;DHT22;49973;52.084;5.412;2024-03-23T14:13:08;11.50;99.90
61912;DHT22;49973;52.084;5.412;2024-03-23T14:15:36;12.20;99.90
61912;DHT22;49973;52.084;5.412;2024-03-23T14:18:03;12.70;99.90
61912;DHT22;49973;52.084;5.412;2024-03-23T14:20:32;13.10;99.90
61912;DHT22;49973;52.084;5.412;2024-03-23T14:23:00;13.40;99.90
61912;DHT22;49973;52.084;5.412;2024-03-23T14:25:28;13.70;99.90
61912;DHT22;49973;52.084;5.412;2024-03-23T14:27:55;13.80;99.90
61912;DHT22;49973;52.084;5.412;2024-03-23T14:30:24;13.80;99.90
61912;DHT22;49973;52.084;5.412;2024-03-23T14:32:51;13.50;99.90
61912;DHT22;49973;52.084;5.412;2024-03-23T14:35:18;13.20;99.90
61912;DHT22;49973;52.084;5.412;2024-03-23T14:37:46;13.20;99.90
61912;DHT22;49973;52.084;5.412;2024-03-23T14:40:14;13.20;99.90
61912;DHT22;49973;52.084;5.412;2024-03-23T14:42:41;13.30;99.90
61912;DHT22;49973;52.084;5.412;2024-03-23T14:45:09;13.50;99.90
61912;DHT22;49973;52.084;5.412;2024-03-23T14:47:35;13.60;99.90
61912;DHT22;49973;52.084;5.412;2024-03-23T14:50:03;13.40;99.90
61912;DHT22;49973;52.084;5.412;2024-03-23T14:52:30;13.00;99.90
61912;DHT22;49973;52.084;5.412;2024-03-23T14:54:59;12.60;99.90
61912;DHT22;49973;52.084;5.412;2024-03-23T14:57:25;12.20;99.90
61912;DHT22;49973;52.084;5.412;2024-03-23T14:59:55;11.80;99.90
61912;DHT22;49973;52.084;5.412;2024-03-23T15:02:22;11.50;99.90
61912;DHT22;49973;52.084;5.412;2024-03-23T15:04:50;10.90;99.90
61912;DHT22;49973;52.084;5.412;2024-03-23T15:07:16;10.50;99.90
61912;DHT22;49973;52.084;5.412;2024-03-23T15:09:44;10.20;99.90
61912;DHT22;49973;52.084;5.412;2024-03-23T15:12:12;10.10;99.90
61912;DHT22;49973;52.084;5.412;2024-03-23T15:14:39;10.10;99.90
61912;DHT22;49973;52.084;5.412;2024-03-23T15:17:06;10.30;99.90
61912;DHT22;49973;52.084;5.412;2024-03-23T15:19:35;10.50;99.90
61912;DHT22;49973;52.084;5.412;2024-03-23T15:22:02;10.80;99.90
61912;DHT22;49973;52.084;5.412;2024-03-23T15:24:29;10.90;99.90
61912;DHT22;49973;52.084;5.412;2024-03-23T15:26:57;11.00;99.90
61912;DHT22;49973;52.084;5.412;2024-03-23T15:29:26;11.10;99.90
61912;DHT22;49973;52.084;5.412;2024-03-23T15:31:53;11.30;99.90
61912;DHT22;49973;52.084;5.412;2024-03-23T15:34:20;11.50;99.90
61912;DHT22;49973;52.084;5.412;2024-03-23T15:36:48;11.60;99.90
61912;DHT22;49973;52.084;5.412;2024-03-23T15:39:16;11.70;99.90
61912;DHT22;49973;52.084;5.412;2024-03-23T15:41:46;11.90;99.90
61912;DHT22;49973;52.084;5.412;2024-03-23T15:44:14;11.90;99.90
61912;DHT22;49973;52.084;5.412;2024-03-23T15:46:42;11.80;99.90
61912;DHT22;49973;52.084;5.412;2024-03-23T15:49:10;11.90;99.90
61912;DHT22;49973;52.084;5.412;2024-03-23T15:51:36;11.80;99.90
61912;DHT22;49973;52.084;5.412;2024-03-23T15:54:06;11.40;99.90
61912;DHT22;49973;52.084;5.412;2024-03-23T15:56:32;11.10;99.90
61912;DHT22;49973;52.084;5.412;2024-03-23T15:59:00;10.70;99.90
61912;DHT22;49973;52.084;5.412;2024-03-23T16:01:32;10.50;99.90
61912;DHT22;49973;52.084;5.412;2024-03-23T16:04:02;10.50;99.90
61912;DHT22;49973;52.084;5.412;2024-03-23T16:06:29;10.70;99.90
61912;DHT22;49973;52.084;5.412;2024-03-23T16:08:57;11.20;99.90
61912;DHT22;49973;52.084;5.412;2024-03-23T16:11:24;11.70;99.90
61912;DHT22;49973;52.084;5.412;2024-03-23T16:13:51;12.10;99.90
61912;DHT22;49973;52.084;5.412;2024-03-23T16:16:18;12.50;99.90
61912;DHT22;49973;52.084;5.412;2024-03-23T16:18:48;12.40;99.90
61912;DHT22;49973;52.084;5.412;2024-03-23T16:21:16;12.10;99.90
61912;DHT22;49973;52.084;5.412;2024-03-23T16:23:44;12.10;99.90
61912;DHT22;49973;52.084;5.412;2024-03-23T16:26:12;11.80;99.90
61912;DHT22;49973;52.084;5.412;2024-03-23T16:28:42;11.30;99.90
61912;DHT22;49973;52.084;5.412;2024-03-23T16:31:09;10.90;99.90
61912;DHT22;49973;52.084;5.412;2024-03-23T16:33:38;10.50;99.90
61912;DHT22;49973;52.084;5.412;2024-03-23T16:36:06;10.10;99.90
61912;DHT22;49973;52.084;5.412;2024-03-23T16:38:37;9.80;99.90